sensor_id;sensor_type;location;lat;lon;timestamp;P1;durP1;ratioP1;P2;durP2;ratioP2
61096;SDS011;46977;50.936;6.908;2023-05-10T00:02:50;2.75;;;2.65;;
61096;SDS011;46977;50.936;6.908;2023-05-10T00:05:53;2.50;;;2.38;;
61096;SDS011;46977;50.936;6.908;2023-05-10T00:08:55;2.30;;;2.20;;
61096;SDS011;46977;50.936;6.908;2023-05-10T00:11:59;3.35;;;3.15;;
61096;SDS011;46977;50.936;6.908;2023-05-10T00:15:01;2.88;;;2.78;;
61096;SDS011;46977;50.936;6.908;2023-05-10T00:18:04;3.10;;;2.90;;
61096;SDS011;46977;50.936;6.908;2023-05-10T00:21:06;3.38;;;3.17;;
61096;SDS011;46977;50.936;6.908;2023-05-10T00:24:09;3.20;;;3.00;;
61096;SDS011;46977;50.936;6.908;2023-05-10T00:27:12;3.80;;;3.60;;
61096;SDS011;46977;50.936;6.908;2023-05-10T00:30:15;3.80;;;3.58;;
61096;SDS011;46977;50.936;6.908;2023-05-10T00:33:17;3.75;;;3.20;;
61096;SDS011;46977;50.936;6.908;2023-05-10T00:36:20;3.38;;;3.17;;
61096;SDS011;46977;50.936;6.908;2023-05-10T00:39:23;3.92;;;3.63;;
61096;SDS011;46977;50.936;6.908;2023-05-10T00:42:26;3.35;;;3.15;;
61096;SDS011;46977;50.936;6.908;2023-05-10T00:45:29;3.80;;;3.45;;
61096;SDS011;46977;50.936;6.908;2023-05-10T00:48:32;3.70;;;3.47;;
61096;SDS011;46977;50.936;6.908;2023-05-10T00:51:34;3.80;;;3.55;;
61096;SDS011;46977;50.936;6.908;2023-05-10T00:54:36;4.10;;;3.75;;
61096;SDS011;46977;50.936;6.908;2023-05-10T00:57:40;3.95;;;3.75;;
61096;SDS011;46977;50.936;6.908;2023-05-10T01:00:43;3.83;;;3.53;;
61096;SDS011;46977;50.936;6.908;2023-05-10T01:03:45;4.18;;;3.88;;
61096;SDS011;46977;50.936;6.908;2023-05-10T01:06:50;3.70;;;3.40;;
61096;SDS011;46977;50.936;6.908;2023-05-10T01:09:52;4.65;;;4.22;;
61096;SDS011;46977;50.936;6.908;2023-05-10T01:12:55;4.28;;;3.92;;
61096;SDS011;46977;50.936;6.908;2023-05-10T01:15:58;4.18;;;3.88;;
61096;SDS011;46977;50.936;6.908;2023-05-10T01:19:03;3.65;;;3.45;;
61096;SDS011;46977;50.936;6.908;2023-05-10T01:22:10;4.20;;;3.80;;
61096;SDS011;46977;50.936;6.908;2023-05-10T01:25:31;4.15;;;3.85;;
61096;SDS011;46977;50.936;6.908;2023-05-10T01:28:42;4.32;;;4.03;;
61096;SDS011;46977;50.936;6.908;2023-05-10T01:32:08;4.45;;;4.15;;
61096;SDS011;46977;50.936;6.908;2023-05-10T01:35:19;4.45;;;4.15;;
61096;SDS011;46977;50.936;6.908;2023-05-10T01:38:28;3.38;;;3.17;;
61096;SDS011;46977;50.936;6.908;2023-05-10T01:41:36;3.50;;;3.20;;
61096;SDS011;46977;50.936;6.908;2023-05-10T01:44:42;4.13;;;3.78;;
61096;SDS011;46977;50.936;6.908;2023-05-10T01:47:52;3.95;;;3.63;;
61096;SDS011;46977;50.936;6.908;2023-05-10T01:50:56;3.70;;;3.40;;
61096;SDS011;46977;50.936;6.908;2023-05-10T01:54:01;3.55;;;3.35;;
61096;SDS011;46977;50.936;6.908;2023-05-10T01:57:05;3.63;;;3.40;;
61096;SDS011;46977;50.936;6.908;2023-05-10T02:00:10;3.83;;;3.63;;
61096;SDS011;46977;50.936;6.908;2023-05-10T02:03:18;3.20;;;3.00;;
61096;SDS011;46977;50.936;6.908;2023-05-10T02:06:22;3.92;;;3.63;;
61096;SDS011;46977;50.936;6.908;2023-05-10T02:09:26;3.67;;;3.38;;
61096;SDS011;46977;50.936;6.908;2023-05-10T02:12:29;3.67;;;3.47;;
61096;SDS011;46977;50.936;6.908;2023-05-10T02:15:33;4.05;;;3.75;;
61096;SDS011;46977;50.936;6.908;2023-05-10T02:18:37;3.75;;;3.45;;
61096;SDS011;46977;50.936;6.908;2023-05-10T02:21:42;3.97;;;3.70;;
61096;SDS011;46977;50.936;6.908;2023-05-10T02:24:45;3.92;;;3.63;;
61096;SDS011;46977;50.936;6.908;2023-05-10T02:27:48;3.70;;;3.45;;
61096;SDS011;46977;50.936;6.908;2023-05-10T02:30:50;3.45;;;3.25;;
61096;SDS011;46977;50.936;6.908;2023-05-10T02:33:54;3.22;;;3.03;;
61096;SDS011;46977;50.936;6.908;2023-05-10T02:36:58;2.85;;;2.58;;
61096;SDS011;46977;50.936;6.908;2023-05-10T02:40:01;2.55;;;2.38;;
61096;SDS011;46977;50.936;6.908;2023-05-10T02:43:07;2.60;;;2.45;;
61096;SDS011;46977;50.936;6.908;2023-05-10T02:46:11;2.30;;;2.20;;
61096;SDS011;46977;50.936;6.908;2023-05-10T02:49:15;1.80;;;1.70;;
61096;SDS011;46977;50.936;6.908;2023-05-10T02:52:19;2.20;;;2.10;;
61096;SDS011;46977;50.936;6.908;2023-05-10T02:55:25;1.65;;;1.55;;
61096;SDS011;46977;50.936;6.908;2023-05-10T02:58:29;1.80;;;1.70;;
61096;SDS011;46977;50.936;6.908;2023-05-10T03:01:31;1.45;;;1.35;;
61096;SDS011;46977;50.936;6.908;2023-05-10T03:04:34;1.40;;;1.30;;
61096;SDS011;46977;50.936;6.908;2023-05-10T03:07:37;1.38;;;1.27;;
61096;SDS011;46977;50.936;6.908;2023-05-10T03:10:41;1.15;;;1.10;;
61096;SDS011;46977;50.936;6.908;2023-05-10T03:13:48;1.33;;;1.23;;
61096;SDS011;46977;50.936;6.908;2023-05-10T03:17:00;1.50;;;1.40;;
61096;SDS011;46977;50.936;6.908;2023-05-10T03:20:08;1.60;;;1.50;;
61096;SDS011;46977;50.936;6.908;2023-05-10T03:23:18;1.40;;;1.30;;
61096;SDS011;46977;50.936;6.908;2023-05-10T03:26:23;1.83;;;1.73;;
61096;SDS011;46977;50.936;6.908;2023-05-10T03:29:34;2.10;;;1.90;;
61096;SDS011;46977;50.936;6.908;2023-05-10T03:32:36;2.55;;;2.35;;
61096;SDS011;46977;50.936;6.908;2023-05-10T03:35:41;2.78;;;2.60;;
61096;SDS011;46977;50.936;6.908;2023-05-10T03:38:44;2.10;;;2.00;;
61096;SDS011;46977;50.936;6.908;2023-05-10T03:41:46;3.22;;;3.03;;
61096;SDS011;46977;50.936;6.908;2023-05-10T03:44:48;3.53;;;2.42;;
61096;SDS011;46977;50.936;6.908;2023-05-10T03:47:51;2.95;;;2.75;;
61096;SDS011;46977;50.936;6.908;2023-05-10T03:50:55;2.92;;;2.72;;
61096;SDS011;46977;50.936;6.908;2023-05-10T03:53:57;3.40;;;3.20;;
61096;SDS011;46977;50.936;6.908;2023-05-10T03:57:00;3.05;;;2.85;;
61096;SDS011;46977;50.936;6.908;2023-05-10T04:00:04;4.15;;;3.38;;
61096;SDS011;46977;50.936;6.908;2023-05-10T04:03:15;4.63;;;3.55;;
61096;SDS011;46977;50.936;6.908;2023-05-10T04:06:19;4.22;;;3.83;;
61096;SDS011;46977;50.936;6.908;2023-05-10T04:09:22;4.40;;;4.10;;
61096;SDS011;46977;50.936;6.908;2023-05-10T04:12:24;3.97;;;3.67;;
61096;SDS011;46977;50.936;6.908;2023-05-10T04:15:26;4.20;;;3.80;;
61096;SDS011;46977;50.936;6.908;2023-05-10T04:18:29;3.95;;;3.55;;
61096;SDS011;46977;50.936;6.908;2023-05-10T04:21:32;4.38;;;4.07;;
61096;SDS011;46977;50.936;6.908;2023-05-10T04:24:35;4.18;;;3.88;;
61096;SDS011;46977;50.936;6.908;2023-05-10T04:27:37;4.18;;;3.88;;
61096;SDS011;46977;50.936;6.908;2023-05-10T04:30:39;4.10;;;3.80;;
61096;SDS011;46977;50.936;6.908;2023-05-10T04:33:42;4.55;;;4.22;;
61096;SDS011;46977;50.936;6.908;2023-05-10T04:36:46;4.63;;;4.22;;
61096;SDS011;46977;50.936;6.908;2023-05-10T04:39:49;5.00;;;4.55;;
61096;SDS011;46977;50.936;6.908;2023-05-10T04:42:52;5.28;;;4.10;;
61096;SDS011;46977;50.936;6.908;2023-05-10T04:45:55;4.43;;;4.03;;
61096;SDS011;46977;50.936;6.908;2023-05-10T04:48:58;5.20;;;4.70;;
61096;SDS011;46977;50.936;6.908;2023-05-10T04:52:01;4.85;;;4.45;;
61096;SDS011;46977;50.936;6.908;2023-05-10T04:55:04;6.90;;;4.70;;
61096;SDS011;46977;50.936;6.908;2023-05-10T04:58:08;4.03;;;3.72;;
61096;SDS011;46977;50.936;6.908;2023-05-10T05:01:10;5.07;;;4.40;;
61096;SDS011;46977;50.936;6.908;2023-05-10T05:04:13;4.53;;;4.22;;
61096;SDS011;46977;50.936;6.908;2023-05-10T05:07:17;4.65;;;4.25;;
61096;SDS011;46977;50.936;6.908;2023-05-10T05:10:19;4.88;;;4.47;;
61096;SDS011;46977;50.936;6.908;2023-05-10T05:13:22;5.10;;;4.63;;
61096;SDS011;46977;50.936;6.908;2023-05-10T05:16:24;4.90;;;4.20;;
61096;SDS011;46977;50.936;6.908;2023-05-10T05:19:27;4.75;;;4.45;;
61096;SDS011;46977;50.936;6.908;2023-05-10T05:22:31;4.20;;;3.90;;
61096;SDS011;46977;50.936;6.908;2023-05-10T05:25:33;4.00;;;3.70;;
61096;SDS011;46977;50.936;6.908;2023-05-10T05:28:35;4.15;;;3.80;;
61096;SDS011;46977;50.936;6.908;2023-05-10T05:31:39;4.25;;;3.88;;
61096;SDS011;46977;50.936;6.908;2023-05-10T05:34:41;4.68;;;4.30;;
61096;SDS011;46977;50.936;6.908;2023-05-10T05:37:45;5.65;;;5.13;;
61096;SDS011;46977;50.936;6.908;2023-05-10T05:40:47;5.68;;;4.38;;
61096;SDS011;46977;50.936;6.908;2023-05-10T05:43:49;4.03;;;3.65;;
61096;SDS011;46977;50.936;6.908;2023-05-10T05:46:51;4.35;;;3.53;;
61096;SDS011;46977;50.936;6.908;2023-05-10T05:49:54;4.00;;;3.60;;
61096;SDS011;46977;50.936;6.908;2023-05-10T05:52:58;3.63;;;3.33;;
61096;SDS011;46977;50.936;6.908;2023-05-10T05:56:02;4.13;;;3.70;;
61096;SDS011;46977;50.936;6.908;2023-05-10T05:59:05;4.78;;;3.92;;
61096;SDS011;46977;50.936;6.908;2023-05-10T06:02:07;5.25;;;4.80;;
61096;SDS011;46977;50.936;6.908;2023-05-10T06:05:10;4.20;;;3.80;;
61096;SDS011;46977;50.936;6.908;2023-05-10T06:08:13;4.30;;;4.00;;
61096;SDS011;46977;50.936;6.908;2023-05-10T06:11:15;3.85;;;3.55;;
61096;SDS011;46977;50.936;6.908;2023-05-10T06:14:19;4.22;;;3.83;;
61096;SDS011;46977;50.936;6.908;2023-05-10T06:17:22;3.78;;;3.47;;
61096;SDS011;46977;50.936;6.908;2023-05-10T06:20:24;3.95;;;3.58;;
61096;SDS011;46977;50.936;6.908;2023-05-10T06:23:28;4.10;;;3.60;;
61096;SDS011;46977;50.936;6.908;2023-05-10T06:26:31;3.70;;;3.40;;
61096;SDS011;46977;50.936;6.908;2023-05-10T06:29:33;3.75;;;3.33;;
61096;SDS011;46977;50.936;6.908;2023-05-10T06:32:36;3.85;;;3.53;;
61096;SDS011;46977;50.936;6.908;2023-05-10T06:35:38;5.60;;;5.20;;
61096;SDS011;46977;50.936;6.908;2023-05-10T06:38:42;4.30;;;3.90;;
61096;SDS011;46977;50.936;6.908;2023-05-10T06:41:44;3.63;;;3.35;;
61096;SDS011;46977;50.936;6.908;2023-05-10T06:44:46;3.60;;;3.30;;
61096;SDS011;46977;50.936;6.908;2023-05-10T06:47:48;3.80;;;3.50;;
61096;SDS011;46977;50.936;6.908;2023-05-10T06:50:51;4.57;;;3.63;;
61096;SDS011;46977;50.936;6.908;2023-05-10T06:53:54;3.67;;;3.47;;
61096;SDS011;46977;50.936;6.908;2023-05-10T06:56:57;3.80;;;3.50;;
61096;SDS011;46977;50.936;6.908;2023-05-10T06:59:59;4.18;;;3.78;;
61096;SDS011;46977;50.936;6.908;2023-05-10T07:03:02;3.85;;;3.60;;
61096;SDS011;46977;50.936;6.908;2023-05-10T07:06:05;4.18;;;3.78;;
61096;SDS011;46977;50.936;6.908;2023-05-10T07:09:18;3.60;;;3.30;;
61096;SDS011;46977;50.936;6.908;2023-05-10T07:12:20;3.50;;;3.30;;
61096;SDS011;46977;50.936;6.908;2023-05-10T07:15:23;4.25;;;3.80;;
61096;SDS011;46977;50.936;6.908;2023-05-10T07:18:25;3.47;;;3.28;;
61096;SDS011;46977;50.936;6.908;2023-05-10T07:21:28;3.45;;;3.25;;
61096;SDS011;46977;50.936;6.908;2023-05-10T07:24:32;4.32;;;3.92;;
61096;SDS011;46977;50.936;6.908;2023-05-10T07:27:35;4.20;;;3.90;;
61096;SDS011;46977;50.936;6.908;2023-05-10T07:30:37;4.03;;;3.72;;
61096;SDS011;46977;50.936;6.908;2023-05-10T07:33:39;4.03;;;3.72;;
61096;SDS011;46977;50.936;6.908;2023-05-10T07:36:42;4.43;;;4.03;;
61096;SDS011;46977;50.936;6.908;2023-05-10T07:39:46;3.60;;;3.30;;
61096;SDS011;46977;50.936;6.908;2023-05-10T07:42:48;4.07;;;3.78;;
61096;SDS011;46977;50.936;6.908;2023-05-10T07:45:50;2.88;;;2.67;;
61096;SDS011;46977;50.936;6.908;2023-05-10T07:48:56;3.35;;;3.00;;
61096;SDS011;46977;50.936;6.908;2023-05-10T07:51:59;3.45;;;3.15;;
61096;SDS011;46977;50.936;6.908;2023-05-10T07:55:03;3.78;;;3.47;;
61096;SDS011;46977;50.936;6.908;2023-05-10T07:58:05;3.15;;;2.80;;
61096;SDS011;46977;50.936;6.908;2023-05-10T08:01:07;3.47;;;3.28;;
61096;SDS011;46977;50.936;6.908;2023-05-10T08:04:10;3.35;;;3.15;;
61096;SDS011;46977;50.936;6.908;2023-05-10T08:07:13;2.80;;;2.60;;
61096;SDS011;46977;50.936;6.908;2023-05-10T08:10:16;3.03;;;2.78;;
61096;SDS011;46977;50.936;6.908;2023-05-10T08:13:19;3.13;;;2.58;;
61096;SDS011;46977;50.936;6.908;2023-05-10T08:16:22;2.25;;;2.15;;
61096;SDS011;46977;50.936;6.908;2023-05-10T08:19:24;1.98;;;1.88;;
61096;SDS011;46977;50.936;6.908;2023-05-10T08:22:27;1.90;;;1.77;;
61096;SDS011;46977;50.936;6.908;2023-05-10T08:25:30;1.60;;;1.50;;
61096;SDS011;46977;50.936;6.908;2023-05-10T08:28:33;1.45;;;1.35;;
61096;SDS011;46977;50.936;6.908;2023-05-10T08:31:35;1.85;;;1.70;;
61096;SDS011;46977;50.936;6.908;2023-05-10T08:34:37;1.98;;;1.88;;
61096;SDS011;46977;50.936;6.908;2023-05-10T08:37:40;3.03;;;1.85;;
61096;SDS011;46977;50.936;6.908;2023-05-10T08:40:44;1.77;;;1.67;;
61096;SDS011;46977;50.936;6.908;2023-05-10T08:43:47;1.50;;;1.40;;
61096;SDS011;46977;50.936;6.908;2023-05-10T08:46:49;1.63;;;1.50;;
61096;SDS011;46977;50.936;6.908;2023-05-10T08:49:55;1.38;;;1.33;;
61096;SDS011;46977;50.936;6.908;2023-05-10T08:52:59;1.77;;;1.48;;
61096;SDS011;46977;50.936;6.908;2023-05-10T08:56:04;2.15;;;2.05;;
61096;SDS011;46977;50.936;6.908;2023-05-10T08:59:07;2.17;;;2.05;;
61096;SDS011;46977;50.936;6.908;2023-05-10T09:02:09;1.77;;;1.67;;
61096;SDS011;46977;50.936;6.908;2023-05-10T09:05:12;1.48;;;1.38;;
61096;SDS011;46977;50.936;6.908;2023-05-10T09:08:15;1.95;;;1.85;;
61096;SDS011;46977;50.936;6.908;2023-05-10T09:11:20;1.65;;;1.55;;
61096;SDS011;46977;50.936;6.908;2023-05-10T09:14:23;1.70;;;1.60;;
61096;SDS011;46977;50.936;6.908;2023-05-10T09:17:26;1.50;;;1.40;;
61096;SDS011;46977;50.936;6.908;2023-05-10T09:20:29;1.77;;;1.67;;
61096;SDS011;46977;50.936;6.908;2023-05-10T09:23:32;1.92;;;1.70;;
61096;SDS011;46977;50.936;6.908;2023-05-10T09:26:39;1.65;;;1.55;;
61096;SDS011;46977;50.936;6.908;2023-05-10T09:29:48;1.70;;;1.60;;
61096;SDS011;46977;50.936;6.908;2023-05-10T09:32:55;1.48;;;1.40;;
61096;SDS011;46977;50.936;6.908;2023-05-10T09:36:06;2.55;;;2.35;;
61096;SDS011;46977;50.936;6.908;2023-05-10T09:39:09;2.13;;;2.03;;
61096;SDS011;46977;50.936;6.908;2023-05-10T09:42:12;2.50;;;2.40;;
61096;SDS011;46977;50.936;6.908;2023-05-10T09:45:14;2.60;;;2.40;;
61096;SDS011;46977;50.936;6.908;2023-05-10T09:48:17;2.45;;;2.35;;
61096;SDS011;46977;50.936;6.908;2023-05-10T09:51:20;2.42;;;2.17;;
61096;SDS011;46977;50.936;6.908;2023-05-10T09:54:23;3.45;;;3.25;;
61096;SDS011;46977;50.936;6.908;2023-05-10T09:57:27;2.72;;;2.53;;
61096;SDS011;46977;50.936;6.908;2023-05-10T10:00:34;5.03;;;3.30;;
61096;SDS011;46977;50.936;6.908;2023-05-10T10:03:40;2.70;;;2.50;;
61096;SDS011;46977;50.936;6.908;2023-05-10T10:06:43;3.28;;;3.08;;
61096;SDS011;46977;50.936;6.908;2023-05-10T10:09:46;2.53;;;2.20;;
61096;SDS011;46977;50.936;6.908;2023-05-10T10:12:49;2.15;;;2.05;;
61096;SDS011;46977;50.936;6.908;2023-05-10T10:15:52;1.90;;;1.80;;
61096;SDS011;46977;50.936;6.908;2023-05-10T10:18:56;1.80;;;1.70;;
61096;SDS011;46977;50.936;6.908;2023-05-10T10:21:59;1.77;;;1.67;;
61096;SDS011;46977;50.936;6.908;2023-05-10T10:25:02;1.55;;;1.45;;
61096;SDS011;46977;50.936;6.908;2023-05-10T10:28:20;2.00;;;1.80;;
61096;SDS011;46977;50.936;6.908;2023-05-10T10:31:32;1.80;;;1.70;;
61096;SDS011;46977;50.936;6.908;2023-05-10T10:34:38;1.48;;;1.38;;
61096;SDS011;46977;50.936;6.908;2023-05-10T10:37:45;1.25;;;1.15;;
61096;SDS011;46977;50.936;6.908;2023-05-10T10:40:48;1.25;;;1.15;;
61096;SDS011;46977;50.936;6.908;2023-05-10T10:44:24;1.58;;;1.48;;
61096;SDS011;46977;50.936;6.908;2023-05-10T10:47:28;1.70;;;1.60;;
61096;SDS011;46977;50.936;6.908;2023-05-10T10:50:42;1.77;;;1.67;;
61096;SDS011;46977;50.936;6.908;2023-05-10T10:53:45;1.95;;;1.85;;
61096;SDS011;46977;50.936;6.908;2023-05-10T10:57:03;1.77;;;1.67;;
61096;SDS011;46977;50.936;6.908;2023-05-10T11:00:20;1.85;;;1.75;;
61096;SDS011;46977;50.936;6.908;2023-05-10T11:03:28;1.73;;;1.63;;
61096;SDS011;46977;50.936;6.908;2023-05-10T11:06:31;1.02;;;1.02;;
61096;SDS011;46977;50.936;6.908;2023-05-10T11:09:38;1.02;;;0.98;;
61096;SDS011;46977;50.936;6.908;2023-05-10T11:12:50;1.20;;;1.20;;
61096;SDS011;46977;50.936;6.908;2023-05-10T11:15:54;0.80;;;0.80;;
61096;SDS011;46977;50.936;6.908;2023-05-10T11:18:59;1.00;;;0.98;;
61096;SDS011;46977;50.936;6.908;2023-05-10T11:25:26;0.63;;;0.60;;
61096;SDS011;46977;50.936;6.908;2023-05-10T11:28:28;0.60;;;0.60;;
61096;SDS011;46977;50.936;6.908;2023-05-10T11:31:32;0.60;;;0.55;;
61096;SDS011;46977;50.936;6.908;2023-05-10T11:34:34;0.73;;;0.50;;
61096;SDS011;46977;50.936;6.908;2023-05-10T11:37:37;0.50;;;0.50;;
61096;SDS011;46977;50.936;6.908;2023-05-10T11:40:43;0.50;;;0.50;;
61096;SDS011;46977;50.936;6.908;2023-05-10T11:43:45;0.50;;;0.50;;
61096;SDS011;46977;50.936;6.908;2023-05-10T11:46:50;0.50;;;0.50;;
61096;SDS011;46977;50.936;6.908;2023-05-10T11:49:52;0.60;;;0.60;;
61096;SDS011;46977;50.936;6.908;2023-05-10T11:52:55;0.40;;;0.35;;
61096;SDS011;46977;50.936;6.908;2023-05-10T11:56:02;0.30;;;0.30;;
61096;SDS011;46977;50.936;6.908;2023-05-10T11:59:04;0.40;;;0.40;;
61096;SDS011;46977;50.936;6.908;2023-05-10T12:02:09;0.30;;;0.30;;
61096;SDS011;46977;50.936;6.908;2023-05-10T12:05:11;0.40;;;0.40;;
61096;SDS011;46977;50.936;6.908;2023-05-10T12:08:14;0.50;;;0.38;;
61096;SDS011;46977;50.936;6.908;2023-05-10T12:11:17;0.50;;;0.30;;
61096;SDS011;46977;50.936;6.908;2023-05-10T12:14:19;0.25;;;0.25;;
61096;SDS011;46977;50.936;6.908;2023-05-10T12:17:28;0.28;;;0.28;;
61096;SDS011;46977;50.936;6.908;2023-05-10T12:20:31;0.30;;;0.30;;
61096;SDS011;46977;50.936;6.908;2023-05-10T12:23:33;0.52;;;0.38;;
61096;SDS011;46977;50.936;6.908;2023-05-10T12:26:36;0.40;;;0.40;;
61096;SDS011;46977;50.936;6.908;2023-05-10T12:29:41;1.27;;;0.30;;
61096;SDS011;46977;50.936;6.908;2023-05-10T12:32:47;0.35;;;0.30;;
61096;SDS011;46977;50.936;6.908;2023-05-10T12:35:50;0.20;;;0.20;;
61096;SDS011;46977;50.936;6.908;2023-05-10T12:38:59;0.43;;;0.40;;
61096;SDS011;46977;50.936;6.908;2023-05-10T12:42:04;0.93;;;0.30;;
61096;SDS011;46977;50.936;6.908;2023-05-10T12:45:07;0.50;;;0.50;;
61096;SDS011;46977;50.936;6.908;2023-05-10T12:48:12;0.50;;;0.20;;
61096;SDS011;46977;50.936;6.908;2023-05-10T12:51:14;0.30;;;0.30;;
61096;SDS011;46977;50.936;6.908;2023-05-10T12:54:19;0.32;;;0.30;;
61096;SDS011;46977;50.936;6.908;2023-05-10T12:57:21;0.10;;;0.10;;
61096;SDS011;46977;50.936;6.908;2023-05-10T13:00:24;0.20;;;0.20;;
61096;SDS011;46977;50.936;6.908;2023-05-10T13:03:28;0.10;;;0.10;;
61096;SDS011;46977;50.936;6.908;2023-05-10T13:06:30;0.17;;;0.17;;
61096;SDS011;46977;50.936;6.908;2023-05-10T13:09:33;0.20;;;0.20;;
61096;SDS011;46977;50.936;6.908;2023-05-10T13:12:35;0.70;;;0.20;;
61096;SDS011;46977;50.936;6.908;2023-05-10T13:15:37;0.20;;;0.20;;
61096;SDS011;46977;50.936;6.908;2023-05-10T13:18:41;0.20;;;0.20;;
61096;SDS011;46977;50.936;6.908;2023-05-10T13:21:43;0.55;;;0.30;;
61096;SDS011;46977;50.936;6.908;2023-05-10T13:24:46;0.22;;;0.20;;
61096;SDS011;46977;50.936;6.908;2023-05-10T13:27:49;0.57;;;0.17;;
61096;SDS011;46977;50.936;6.908;2023-05-10T13:30:51;2.00;;;0.20;;
61096;SDS011;46977;50.936;6.908;2023-05-10T13:33:55;0.28;;;0.13;;
61096;SDS011;46977;50.936;6.908;2023-05-10T13:36:57;0.20;;;0.20;;
61096;SDS011;46977;50.936;6.908;2023-05-10T13:39:59;0.82;;;0.20;;
61096;SDS011;46977;50.936;6.908;2023-05-10T13:43:02;0.10;;;0.10;;
61096;SDS011;46977;50.936;6.908;2023-05-10T13:46:06;0.10;;;0.10;;
61096;SDS011;46977;50.936;6.908;2023-05-10T13:49:10;0.17;;;0.10;;
61096;SDS011;46977;50.936;6.908;2023-05-10T13:52:12;0.10;;;0.10;;
61096;SDS011;46977;50.936;6.908;2023-05-10T13:55:15;0.20;;;0.10;;
61096;SDS011;46977;50.936;6.908;2023-05-10T13:58:35;0.10;;;0.10;;
61096;SDS011;46977;50.936;6.908;2023-05-10T14:01:38;0.10;;;0.00;;
61096;SDS011;46977;50.936;6.908;2023-05-10T14:04:41;0.10;;;0.10;;
61096;SDS011;46977;50.936;6.908;2023-05-10T14:07:44;0.10;;;0.10;;
61096;SDS011;46977;50.936;6.908;2023-05-10T14:10:47;0.03;;;0.00;;
61096;SDS011;46977;50.936;6.908;2023-05-10T14:13:50;1.45;;;0.15;;
61096;SDS011;46977;50.936;6.908;2023-05-10T14:16:52;0.10;;;0.10;;
61096;SDS011;46977;50.936;6.908;2023-05-10T14:19:56;0.20;;;0.10;;
61096;SDS011;46977;50.936;6.908;2023-05-10T14:22:58;0.08;;;0.00;;
61096;SDS011;46977;50.936;6.908;2023-05-10T14:26:00;0.10;;;0.10;;
61096;SDS011;46977;50.936;6.908;2023-05-10T14:29:03;0.10;;;0.10;;
61096;SDS011;46977;50.936;6.908;2023-05-10T14:32:05;0.75;;;0.10;;
61096;SDS011;46977;50.936;6.908;2023-05-10T14:35:09;0.28;;;0.10;;
61096;SDS011;46977;50.936;6.908;2023-05-10T14:38:15;0.25;;;0.10;;
61096;SDS011;46977;50.936;6.908;2023-05-10T14:41:17;0.10;;;0.10;;
61096;SDS011;46977;50.936;6.908;2023-05-10T14:44:20;0.57;;;0.00;;
61096;SDS011;46977;50.936;6.908;2023-05-10T14:47:22;1.02;;;0.10;;
61096;SDS011;46977;50.936;6.908;2023-05-10T14:50:26;0.10;;;0.10;;
61096;SDS011;46977;50.936;6.908;2023-05-10T14:53:38;0.20;;;0.20;;
61096;SDS011;46977;50.936;6.908;2023-05-10T14:56:40;0.10;;;0.10;;
61096;SDS011;46977;50.936;6.908;2023-05-10T14:59:44;0.85;;;0.20;;
61096;SDS011;46977;50.936;6.908;2023-05-10T15:02:47;0.10;;;0.10;;
61096;SDS011;46977;50.936;6.908;2023-05-10T15:05:51;0.10;;;0.10;;
61096;SDS011;46977;50.936;6.908;2023-05-10T15:08:54;0.17;;;0.17;;
61096;SDS011;46977;50.936;6.908;2023-05-10T15:11:57;0.10;;;0.10;;
61096;SDS011;46977;50.936;6.908;2023-05-10T15:14:59;0.20;;;0.20;;
61096;SDS011;46977;50.936;6.908;2023-05-10T15:18:01;0.20;;;0.15;;
61096;SDS011;46977;50.936;6.908;2023-05-10T15:21:05;0.20;;;0.20;;
61096;SDS011;46977;50.936;6.908;2023-05-10T15:24:08;0.32;;;0.10;;
61096;SDS011;46977;50.936;6.908;2023-05-10T15:27:11;3.40;;;0.15;;
61096;SDS011;46977;50.936;6.908;2023-05-10T15:30:13;0.22;;;0.10;;
61096;SDS011;46977;50.936;6.908;2023-05-10T15:33:16;0.20;;;0.20;;
61096;SDS011;46977;50.936;6.908;2023-05-10T15:36:19;0.73;;;0.30;;
61096;SDS011;46977;50.936;6.908;2023-05-10T15:39:22;0.28;;;0.20;;
61096;SDS011;46977;50.936;6.908;2023-05-10T15:42:24;0.20;;;0.20;;
61096;SDS011;46977;50.936;6.908;2023-05-10T15:45:27;0.32;;;0.20;;
61096;SDS011;46977;50.936;6.908;2023-05-10T15:48:29;0.20;;;0.20;;
61096;SDS011;46977;50.936;6.908;2023-05-10T15:51:34;0.60;;;0.20;;
61096;SDS011;46977;50.936;6.908;2023-05-10T15:54:38;1.30;;;0.30;;
61096;SDS011;46977;50.936;6.908;2023-05-10T15:57:40;0.20;;;0.20;;
61096;SDS011;46977;50.936;6.908;2023-05-10T16:00:43;0.20;;;0.20;;
61096;SDS011;46977;50.936;6.908;2023-05-10T16:03:45;0.25;;;0.25;;
61096;SDS011;46977;50.936;6.908;2023-05-10T16:06:49;0.30;;;0.20;;
61096;SDS011;46977;50.936;6.908;2023-05-10T16:09:52;0.70;;;0.20;;
61096;SDS011;46977;50.936;6.908;2023-05-10T16:12:54;0.60;;;0.15;;
61096;SDS011;46977;50.936;6.908;2023-05-10T16:15:56;0.20;;;0.20;;
61096;SDS011;46977;50.936;6.908;2023-05-10T16:18:59;0.20;;;0.20;;
61096;SDS011;46977;50.936;6.908;2023-05-10T16:22:03;0.35;;;0.17;;
61096;SDS011;46977;50.936;6.908;2023-05-10T16:25:06;0.28;;;0.20;;
61096;SDS011;46977;50.936;6.908;2023-05-10T16:28:09;0.35;;;0.22;;
61096;SDS011;46977;50.936;6.908;2023-05-10T16:31:11;0.30;;;0.20;;
61096;SDS011;46977;50.936;6.908;2023-05-10T16:34:14;1.13;;;0.20;;
61096;SDS011;46977;50.936;6.908;2023-05-10T16:37:18;0.68;;;0.20;;
61096;SDS011;46977;50.936;6.908;2023-05-10T16:40:20;0.40;;;0.17;;
61096;SDS011;46977;50.936;6.908;2023-05-10T16:43:23;0.50;;;0.20;;
61096;SDS011;46977;50.936;6.908;2023-05-10T16:46:27;0.52;;;0.20;;
61096;SDS011;46977;50.936;6.908;2023-05-10T16:49:29;0.20;;;0.20;;
61096;SDS011;46977;50.936;6.908;2023-05-10T16:52:33;1.50;;;0.20;;
61096;SDS011;46977;50.936;6.908;2023-05-10T16:55:36;0.25;;;0.20;;
61096;SDS011;46977;50.936;6.908;2023-05-10T16:58:39;0.20;;;0.20;;
61096;SDS011;46977;50.936;6.908;2023-05-10T17:01:41;0.35;;;0.35;;
61096;SDS011;46977;50.936;6.908;2023-05-10T17:04:43;0.30;;;0.30;;
61096;SDS011;46977;50.936;6.908;2023-05-10T17:07:47;0.28;;;0.20;;
61096;SDS011;46977;50.936;6.908;2023-05-10T17:10:50;0.20;;;0.20;;
61096;SDS011;46977;50.936;6.908;2023-05-10T17:13:52;0.30;;;0.30;;
61096;SDS011;46977;50.936;6.908;2023-05-10T17:16:54;0.85;;;0.32;;
61096;SDS011;46977;50.936;6.908;2023-05-10T17:19:57;0.20;;;0.20;;
61096;SDS011;46977;50.936;6.908;2023-05-10T17:23:03;0.60;;;0.28;;
61096;SDS011;46977;50.936;6.908;2023-05-10T17:26:05;0.30;;;0.30;;
61096;SDS011;46977;50.936;6.908;2023-05-10T17:29:09;0.40;;;0.30;;
61096;SDS011;46977;50.936;6.908;2023-05-10T17:32:11;0.30;;;0.30;;
61096;SDS011;46977;50.936;6.908;2023-05-10T17:35:13;0.30;;;0.30;;
61096;SDS011;46977;50.936;6.908;2023-05-10T17:38:18;0.20;;;0.20;;
61096;SDS011;46977;50.936;6.908;2023-05-10T17:41:20;0.20;;;0.20;;
61096;SDS011;46977;50.936;6.908;2023-05-10T17:44:22;0.30;;;0.30;;
61096;SDS011;46977;50.936;6.908;2023-05-10T17:47:26;0.60;;;0.20;;
61096;SDS011;46977;50.936;6.908;2023-05-10T17:50:29;0.30;;;0.25;;
61096;SDS011;46977;50.936;6.908;2023-05-10T17:53:33;0.35;;;0.35;;
61096;SDS011;46977;50.936;6.908;2023-05-10T17:56:36;0.68;;;0.30;;
61096;SDS011;46977;50.936;6.908;2023-05-10T17:59:38;0.30;;;0.30;;
61096;SDS011;46977;50.936;6.908;2023-05-10T18:02:40;0.28;;;0.28;;
61096;SDS011;46977;50.936;6.908;2023-05-10T18:05:43;0.38;;;0.38;;
61096;SDS011;46977;50.936;6.908;2023-05-10T18:08:47;0.30;;;0.30;;
61096;SDS011;46977;50.936;6.908;2023-05-10T18:11:50;0.20;;;0.20;;
61096;SDS011;46977;50.936;6.908;2023-05-10T18:14:52;1.35;;;0.20;;
61096;SDS011;46977;50.936;6.908;2023-05-10T18:17:54;0.30;;;0.30;;
61096;SDS011;46977;50.936;6.908;2023-05-10T18:20:57;0.30;;;0.20;;
61096;SDS011;46977;50.936;6.908;2023-05-10T18:24:01;0.20;;;0.17;;
61096;SDS011;46977;50.936;6.908;2023-05-10T18:27:03;0.22;;;0.20;;
61096;SDS011;46977;50.936;6.908;2023-05-10T18:30:07;0.22;;;0.20;;
61096;SDS011;46977;50.936;6.908;2023-05-10T18:33:10;0.30;;;0.30;;